Time,TemperatureF,DewpointF,PressureIn,WindDirection,WindDirectionDegrees,WindSpeedMPH,WindSpeedGustMPH,Humidity,HourlyPrecipIn,Conditions,Clouds,dailyrainin,SoftwareType,DateUTC
2013-04-24 00:03:00,42.1,40.2,30.12,WNW,292,5.1,-999.0,93,-99.99,,,0.00,Acu-Link.com,2013-04-24 05:03:00,
2013-04-24 00:19:00,41.9,40.0,30.13,NNE,22,8.3,-999.0,93,-99.99,,,0.00,Acu-Link.com,2013-04-24 05:19:00,
2013-04-24 00:34:00,41.9,40.0,30.13,NNE,22,5.1,-999.0,93,-99.99,,,0.00,Acu-Link.com,2013-04-24 05:34:00,
2013-04-24 00:49:00,41.4,39.8,30.14,NNW,337,7.4,-999.0,94,-99.99,,,0.00,Acu-Link.com,2013-04-24 05:49:00,
2013-04-24 01:04:00,41.0,39.4,30.15,NNW,337,7.8,-999.0,94,-99.99,,,0.00,Acu-Link.com,2013-04-24 06:04:00,
2013-04-24 01:19:00,40.8,39.5,30.15,North,0,6.3,-999.0,95,-99.99,,,0.00,Acu-Link.com,2013-04-24 06:19:00,
2013-04-24 01:35:00,40.6,38.5,30.16,NNW,337,4.7,-999.0,92,-99.99,,,0.00,Acu-Link.com,2013-04-24 06:35:00,
2013-04-24 01:50:00,40.5,38.6,30.15,East,90,7.4,-999.0,93,-99.99,,,0.00,Acu-Link.com,2013-04-24 06:50:00,
2013-04-24 02:05:00,40.5,38.3,30.15,NW,315,5.1,-999.0,92,-99.99,,,0.00,Acu-Link.com,2013-04-24 07:05:00,
2013-04-24 02:20:00,40.5,38.3,30.13,North,0,4.7,-999.0,92,-99.99,,,0.00,Acu-Link.com,2013-04-24 07:20:00,
2013-04-24 02:36:00,40.5,38.0,30.15,WNW,292,5.8,-999.0,91,-99.99,,,0.00,Acu-Link.com,2013-04-24 07:36:00,
2013-04-24 02:51:00,40.5,37.8,30.16,North,0,6.3,-999.0,90,-99.99,,,0.00,Acu-Link.com,2013-04-24 07:51:00,
2013-04-24 03:06:00,40.3,37.6,30.17,West,270,3.1,-999.0,90,-99.99,,,0.00,Acu-Link.com,2013-04-24 08:06:00,
2013-04-24 03:21:00,40.3,37.6,30.16,NW,315,5.1,-999.0,90,-99.99,,,0.00,Acu-Link.com,2013-04-24 08:21:00,
2013-04-24 03:36:00,40.1,37.7,30.17,WNW,292,4.7,-999.0,91,-99.99,,,0.00,Acu-Link.com,2013-04-24 08:36:00,
2013-04-24 03:52:00,40.1,37.7,30.18,NNE,22,5.8,-999.0,91,-99.99,,,0.00,Acu-Link.com,2013-04-24 08:52:00,
2013-04-24 04:07:00,39.9,36.7,30.17,NNW,337,4.7,-999.0,88,-99.99,,,0.00,Acu-Link.com,2013-04-24 09:07:00,
2013-04-24 04:22:00,39.9,36.4,30.17,NE,45,5.8,-999.0,87,-99.99,,,0.00,Acu-Link.com,2013-04-24 09:22:00,
2013-04-24 04:37:00,39.6,35.7,30.17,NNW,337,4.3,-999.0,86,-99.99,,,0.00,Acu-Link.com,2013-04-24 09:37:00,
2013-04-24 04:52:00,38.1,33.1,30.18,NW,315,7.8,-999.0,82,-99.99,,,0.00,Acu-Link.com,2013-04-24 09:52:00,
2013-04-24 05:08:00,37.4,32.7,30.18,NNW,337,4.3,-999.0,83,-99.99,,,0.00,Acu-Link.com,2013-04-24 10:08:00,
2013-04-24 05:23:00,37.0,31.8,30.19,NE,45,4.3,-999.0,81,-99.99,,,0.00,Acu-Link.com,2013-04-24 10:23:00,
2013-04-24 05:38:00,36.5,31.5,30.20,North,0,3.1,-999.0,82,-99.99,,,0.00,Acu-Link.com,2013-04-24 10:38:00,
2013-04-24 05:53:00,36.3,31.4,30.19,NW,315,4.7,-999.0,82,-99.99,,,0.00,Acu-Link.com,2013-04-24 10:53:00,
2013-04-24 06:08:00,36.0,31.6,30.20,East,90,2.7,-999.0,84,-99.99,,,0.00,Acu-Link.com,2013-04-24 11:08:00,
2013-04-24 06:24:00,35.8,31.4,30.20,NNE,22,8.3,-999.0,84,-99.99,,,0.00,Acu-Link.com,2013-04-24 11:24:00,
2013-04-24 06:39:00,35.6,31.0,30.21,WSW,247,6.3,-999.0,83,-99.99,,,0.00,Acu-Link.com,2013-04-24 11:39:00,
2013-04-24 06:54:00,35.4,30.8,30.21,North,0,4.3,-999.0,83,-99.99,,,0.00,Acu-Link.com,2013-04-24 11:54:00,
2013-04-24 07:09:00,35.4,30.5,30.22,NE,45,5.8,-999.0,82,-99.99,,,0.00,Acu-Link.com,2013-04-24 12:09:00,
2013-04-24 07:24:00,35.6,30.7,30.22,NNW,337,3.8,-999.0,82,-99.99,,,0.00,Acu-Link.com,2013-04-24 12:24:00,
2013-04-24 07:40:00,36.1,30.9,30.23,NE,45,7.8,-999.0,81,-99.99,,,0.00,Acu-Link.com,2013-04-24 12:40:00,
2013-04-24 07:55:00,36.9,31.0,30.24,ENE,67,6.7,-999.0,79,-99.99,,,0.00,Acu-Link.com,2013-04-24 12:55:00,
2013-04-24 08:10:00,37.9,31.1,30.23,West,270,4.7,-999.0,76,-99.99,,,0.00,Acu-Link.com,2013-04-24 13:10:00,
2013-04-24 08:25:00,38.5,31.3,30.24,NE,45,6.3,-999.0,75,-99.99,,,0.00,Acu-Link.com,2013-04-24 13:25:00,
2013-04-24 08:41:00,39.4,30.8,30.24,NNW,337,7.8,-999.0,71,-99.99,,,0.00,Acu-Link.com,2013-04-24 13:41:00,
2013-04-24 08:56:00,40.3,29.8,30.24,NE,45,9.4,-999.0,66,-99.99,,,0.00,Acu-Link.com,2013-04-24 13:56:00,
2013-04-24 09:11:00,41.0,29.4,30.24,NE,45,4.7,-999.0,63,-99.99,,,0.00,Acu-Link.com,2013-04-24 14:11:00,
2013-04-24 09:26:00,43.0,30.5,30.24,East,90,11.4,-999.0,61,-99.99,,,0.00,Acu-Link.com,2013-04-24 14:26:00,
2013-04-24 09:41:00,42.8,30.7,30.24,NNW,337,7.8,-999.0,62,-99.99,,,0.00,Acu-Link.com,2013-04-24 14:41:00,
2013-04-24 09:57:00,44.4,32.6,30.24,ENE,67,4.7,-999.0,63,-99.99,,,0.00,Acu-Link.com,2013-04-24 14:57:00,
2013-04-24 10:12:00,45.7,33.4,30.24,West,270,6.7,-999.0,62,-99.99,,,0.00,Acu-Link.com,2013-04-24 15:12:00,
2013-04-24 10:27:00,45.5,33.2,30.23,NE,45,8.9,-999.0,62,-99.99,,,0.00,Acu-Link.com,2013-04-24 15:27:00,
2013-04-24 10:42:00,46.8,34.4,30.23,ENE,67,5.8,-999.0,62,-99.99,,,0.00,Acu-Link.com,2013-04-24 15:42:00,
2013-04-24 10:57:00,47.7,34.5,30.23,NNW,337,5.1,-999.0,60,-99.99,,,0.00,Acu-Link.com,2013-04-24 15:57:00,
2013-04-24 11:13:00,48.7,35.9,30.23,East,90,6.3,-999.0,61,-99.99,,,0.00,Acu-Link.com,2013-04-24 16:13:00,
2013-04-24 11:28:00,50.7,36.9,30.22,NW,315,4.7,-999.0,59,-99.99,,,0.00,Acu-Link.com,2013-04-24 16:28:00,
2013-04-24 11:43:00,50.9,36.2,30.22,NE,45,6.3,-999.0,57,-99.99,,,0.00,Acu-Link.com,2013-04-24 16:43:00,
2013-04-24 11:58:00,52.5,36.8,30.22,NE,45,8.3,-999.0,55,-99.99,,,0.00,Acu-Link.com,2013-04-24 16:58:00,
2013-04-24 12:13:00,52.5,36.4,30.22,NNE,22,4.7,-999.0,54,-99.99,,,0.00,Acu-Link.com,2013-04-24 17:13:00,
2013-04-24 12:28:00,53.8,37.5,30.21,NNE,22,4.3,-999.0,54,-99.99,,,0.00,Acu-Link.com,2013-04-24 17:28:00,
2013-04-24 12:44:00,55.4,38.6,30.20,WNW,292,7.4,-999.0,53,-99.99,,,0.00,Acu-Link.com,2013-04-24 17:44:00,
2013-04-24 12:59:00,56.1,38.7,30.20,NE,45,6.7,-999.0,52,-99.99,,,0.00,Acu-Link.com,2013-04-24 17:59:00,
2013-04-24 13:14:00,56.1,37.7,30.20,SE,135,2.2,-999.0,50,-99.99,,,0.00,Acu-Link.com,2013-04-24 18:14:00,
2013-04-24 13:29:00,57.2,38.7,30.19,NW,315,6.3,-999.0,50,-99.99,,,0.00,Acu-Link.com,2013-04-24 18:29:00,
2013-04-24 13:45:00,58.3,38.7,30.18,North,0,3.8,-999.0,48,-99.99,,,0.00,Acu-Link.com,2013-04-24 18:45:00,
2013-04-24 14:00:00,59.5,38.7,30.18,NE,45,4.3,-999.0,46,-99.99,,,0.00,Acu-Link.com,2013-04-24 19:00:00,
2013-04-24 14:15:00,59.9,39.1,30.17,West,270,5.8,-999.0,46,-99.99,,,0.00,Acu-Link.com,2013-04-24 19:15:00,
2013-04-24 14:30:00,60.6,39.7,30.17,SW,225,4.3,-999.0,46,-99.99,,,0.00,Acu-Link.com,2013-04-24 19:30:00,
2013-04-24 14:45:00,59.7,38.9,30.16,NE,45,3.1,-999.0,46,-99.99,,,0.00,Acu-Link.com,2013-04-24 19:45:00,
2013-04-24 15:01:00,61.0,40.1,30.16,NNW,337,4.3,-999.0,46,-99.99,,,0.00,Acu-Link.com,2013-04-24 20:01:00,
2013-04-24 15:16:00,62.6,41.0,30.15,NNE,22,7.4,-999.0,45,-99.99,,,0.00,Acu-Link.com,2013-04-24 20:16:00,
2013-04-24 15:31:00,60.4,40.1,30.14,ENE,67,4.7,-999.0,47,-99.99,,,0.00,Acu-Link.com,2013-04-24 20:31:00,
2013-04-24 15:46:00,61.2,40.2,30.14,WNW,292,5.8,-999.0,46,-99.99,,,0.00,Acu-Link.com,2013-04-24 20:46:00,
2013-04-24 16:01:00,63.5,41.2,30.13,ENE,67,4.7,-999.0,44,-99.99,,,0.00,Acu-Link.com,2013-04-24 21:01:00,
2013-04-24 16:17:00,63.1,41.4,30.13,WNW,292,2.7,-999.0,45,-99.99,,,0.00,Acu-Link.com,2013-04-24 21:17:00,
2013-04-24 16:32:00,62.6,40.4,30.12,ENE,67,7.4,-999.0,44,-99.99,,,0.00,Acu-Link.com,2013-04-24 21:32:00,
2013-04-24 16:47:00,63.1,40.9,30.11,NNW,337,4.3,-999.0,44,-99.99,,,0.00,Acu-Link.com,2013-04-24 21:47:00,
2013-04-24 17:02:00,61.9,40.3,30.11,ENE,67,6.7,-999.0,45,-99.99,,,0.00,Acu-Link.com,2013-04-24 22:02:00,
2013-04-24 17:17:00,63.3,41.0,30.11,NNE,22,4.3,-999.0,44,-99.99,,,0.00,Acu-Link.com,2013-04-24 22:17:00,
2013-04-24 17:33:00,63.0,41.3,30.10,NNW,337,4.7,-999.0,45,-99.99,,,0.00,Acu-Link.com,2013-04-24 22:33:00,
2013-04-24 17:48:00,61.9,39.7,30.11,NE,45,5.1,-999.0,44,-99.99,,,0.00,Acu-Link.com,2013-04-24 22:48:00,
2013-04-24 18:03:00,62.1,39.9,30.10,NE,45,5.1,-999.0,44,-99.99,,,0.00,Acu-Link.com,2013-04-24 23:03:00,
2013-04-24 18:18:00,62.1,41.0,30.10,NNE,22,4.7,-999.0,46,-99.99,,,0.00,Acu-Link.com,2013-04-24 23:18:00,
2013-04-24 18:34:00,61.0,40.6,30.11,East,90,4.3,-999.0,47,-99.99,,,0.00,Acu-Link.com,2013-04-24 23:34:00,
2013-04-24 18:49:00,61.3,40.4,30.11,NE,45,2.2,-999.0,46,-99.99,,,0.00,Acu-Link.com,2013-04-24 23:49:00,
2013-04-24 19:04:00,60.4,40.1,30.11,NE,45,5.1,-999.0,47,-99.99,,,0.00,Acu-Link.com,2013-04-25 00:04:00,
2013-04-24 19:19:00,60.1,40.3,30.11,North,0,4.3,-999.0,48,-99.99,,,0.00,Acu-Link.com,2013-04-25 00:19:00,
2013-04-24 19:34:00,59.4,40.2,30.11,NE,45,4.3,-999.0,49,-99.99,,,0.00,Acu-Link.com,2013-04-25 00:34:00,
2013-04-24 19:50:00,58.8,39.7,30.12,NNW,337,2.7,-999.0,49,-99.99,,,0.00,Acu-Link.com,2013-04-25 00:50:00,
2013-04-24 20:05:00,57.7,39.7,30.13,NNE,22,2.2,-999.0,51,-99.99,,,0.00,Acu-Link.com,2013-04-25 01:05:00,
2013-04-24 20:20:00,57.6,40.1,30.13,East,90,2.7,-999.0,52,-99.99,,,0.00,Acu-Link.com,2013-04-25 01:20:00,
2013-04-24 20:35:00,57.6,40.1,30.14,NE,45,3.8,-999.0,52,-99.99,,,0.00,Acu-Link.com,2013-04-25 01:35:00,
2013-04-24 20:50:00,57.6,40.1,30.15,NE,45,3.8,-999.0,52,-99.99,,,0.00,Acu-Link.com,2013-04-25 01:50:00,
2013-04-24 21:06:00,57.4,40.9,30.15,NNW,337,1.6,-999.0,54,-99.99,,,0.00,Acu-Link.com,2013-04-25 02:06:00,
2013-04-24 21:21:00,57.2,40.7,30.15,NE,45,2.7,-999.0,54,-99.99,,,0.00,Acu-Link.com,2013-04-25 02:21:00,
2013-04-24 21:36:00,57.0,40.5,30.16,NE,45,4.3,-999.0,54,-99.99,,,0.00,Acu-Link.com,2013-04-25 02:36:00,
2013-04-24 21:51:00,57.0,40.5,30.17,NE,45,6.3,-999.0,54,-99.99,,,0.00,Acu-Link.com,2013-04-25 02:51:00,
2013-04-24 22:06:00,56.7,39.7,30.17,NE,45,3.8,-999.0,53,-99.99,,,0.00,Acu-Link.com,2013-04-25 03:06:00,
2013-04-24 22:22:00,56.5,39.6,30.18,NNE,22,4.3,-999.0,53,-99.99,,,0.00,Acu-Link.com,2013-04-25 03:22:00,
2013-04-24 22:37:00,56.1,39.2,30.19,NE,45,4.7,-999.0,53,-99.99,,,0.00,Acu-Link.com,2013-04-25 03:37:00,
2013-04-24 22:53:00,55.8,39.4,30.19,NNE,22,2.2,-999.0,54,-99.99,,,0.00,Acu-Link.com,2013-04-25 03:53:00,
2013-04-24 23:08:00,55.4,40.0,30.19,ESE,112,3.8,-999.0,56,-99.99,,,0.00,Acu-Link.com,2013-04-25 04:08:00,
2013-04-24 23:23:00,55.2,39.8,30.19,NE,45,2.2,-999.0,56,-99.99,,,0.00,Acu-Link.com,2013-04-25 04:23:00,
2013-04-24 23:39:00,54.7,40.2,30.22,ENE,67,0.0,-999.0,58,-99.99,,,0.00,Acu-Link.com,2013-04-25 04:39:00,
2013-04-24 23:54:00,54.7,40.6,30.21,ENE,67,0.0,-999.0,59,-99.99,,,0.00,Acu-Link.com,2013-04-25 04:54:00,